Providence, Indiana
Current Conditions -  °F | °C
As of 10:55 AM on Thursday 27 Nov 2014 (Local Time) from K1II Reporting Station
Light Snow Light Snow  
Wind Chill: 21°   Ceiling: 1600
Heat Index: 30°   Visibility: 7mi
Dew Point: 25°   Wind: 12mph
Humidity: 80%   Direction: 300°WNW
Pressure: 30.34"   Gusts: NA
Location:  39.4919°N, 86.1953°W
Report Text: K1II 271555Z AUTO 30010KT 7SM -SN BKN016 BKN028 OVC035 M01/M04 A3034 RMK AO2
Loading
Personal Weather Stations






























Interactive Weather Map New forecast layout! Learn more

10-Day Weather Forecast

Advertisements
Track Severe Weather on mobile